createdAt,value
2017-09-09T00:00:25.786Z,10.80
2017-09-09T00:02:55.676Z,10.50
2017-09-09T00:05:32.223Z,10.90
2017-09-09T00:08:01.729Z,10.30
2017-09-09T00:10:31.178Z,10.00
2017-09-09T00:13:00.593Z,10.63
2017-09-09T00:15:30.018Z,11.43
2017-09-09T00:17:59.924Z,11.67
2017-09-09T00:20:37.005Z,11.33
2017-09-09T00:23:12.520Z,11.53
2017-09-09T00:25:41.945Z,11.57
2017-09-09T00:28:11.384Z,12.73
2017-09-09T00:30:40.857Z,12.50
2017-09-09T00:33:10.282Z,11.73
2017-09-09T00:35:56.027Z,12.67
2017-09-09T00:38:31.528Z,11.73
2017-09-09T00:41:00.952Z,12.67
2017-09-09T00:43:37.115Z,13.10
2017-09-09T00:46:20.128Z,12.90
2017-09-09T00:48:57.377Z,12.23
2017-09-09T00:51:26.895Z,11.60
2017-09-09T00:53:56.401Z,11.93
2017-09-09T00:56:25.870Z,12.07
2017-09-09T00:58:56.297Z,12.80
2017-09-09T01:01:25.887Z,12.20
2017-09-09T01:03:55.378Z,10.57
2017-09-09T01:06:24.845Z,12.13
2017-09-09T01:08:54.305Z,12.10
2017-09-09T01:11:23.775Z,12.23
2017-09-09T01:13:53.221Z,12.47
2017-09-09T01:16:37.525Z,12.60
2017-09-09T01:19:06.985Z,12.10
2017-09-09T01:21:36.470Z,12.87
2017-09-09T01:24:19.656Z,12.47
2017-09-09T01:26:49.129Z,11.90
2017-09-09T01:29:18.642Z,12.70
2017-09-09T01:31:57.901Z,12.70
2017-09-09T01:34:27.358Z,11.93
2017-09-09T01:37:10.333Z,13.33
2017-09-09T01:39:39.781Z,12.10
2017-09-09T01:42:09.253Z,12.50
2017-09-09T01:44:52.126Z,13.57
2017-09-09T01:47:21.586Z,12.70
2017-09-09T01:49:51.067Z,11.47
2017-09-09T01:52:20.654Z,12.60
2017-09-09T01:54:50.934Z,12.27
2017-09-09T01:57:22.191Z,11.53
2017-09-09T01:59:51.665Z,12.23
2017-09-09T02:02:21.100Z,12.73
2017-09-09T02:04:58.561Z,13.47
2017-09-09T02:07:28.014Z,12.40
2017-09-09T02:09:57.605Z,12.67
2017-09-09T02:12:28.021Z,11.97
2017-09-09T02:14:57.593Z,12.77
2017-09-09T02:17:27.048Z,12.87
2017-09-09T02:19:56.465Z,13.13
2017-09-09T02:22:25.870Z,11.57
2017-09-09T02:24:55.455Z,11.37
2017-09-09T02:27:25.026Z,13.17
2017-09-09T02:30:01.815Z,13.90
2017-09-09T02:32:31.288Z,12.63
2017-09-09T02:35:00.926Z,12.10
2017-09-09T02:37:30.498Z,11.90
2017-09-09T02:40:01.661Z,11.10
2017-09-09T02:42:31.107Z,11.93
2017-09-09T02:45:00.637Z,11.03
2017-09-09T02:47:30.137Z,11.63
2017-09-09T02:49:59.550Z,11.80
2017-09-09T02:52:29.004Z,11.17
2017-09-09T02:55:05.384Z,12.60
2017-09-09T02:57:35.078Z,11.47
2017-09-09T03:00:04.538Z,10.90
2017-09-09T03:02:34.003Z,11.70
2017-09-09T03:05:03.516Z,12.03
2017-09-09T03:07:33.164Z,11.33
2017-09-09T03:10:02.603Z,11.83
2017-09-09T03:12:32.093Z,10.43
2017-09-09T03:15:01.598Z,11.17
2017-09-09T03:17:31.033Z,11.43
2017-09-09T03:20:00.533Z,11.43
2017-09-09T03:22:30.055Z,12.37
2017-09-09T03:24:59.493Z,11.60
2017-09-09T03:27:42.926Z,11.40
2017-09-09T03:30:12.678Z,11.80
2017-09-09T03:32:42.205Z,11.40
2017-09-09T03:35:12.296Z,11.90
2017-09-09T03:37:41.711Z,11.60
2017-09-09T03:40:11.182Z,11.47
2017-09-09T03:42:42.453Z,11.50
2017-09-09T03:45:11.907Z,11.53
2017-09-09T03:47:47.367Z,11.37
2017-09-09T03:50:16.809Z,11.03
2017-09-09T03:52:46.233Z,11.70
2017-09-09T03:55:15.643Z,11.27
2017-09-09T03:57:45.084Z,11.40
2017-09-09T04:00:26.745Z,10.47
2017-09-09T04:02:56.194Z,13.50
2017-09-09T04:05:25.625Z,11.70
2017-09-09T04:07:55.129Z,10.70
2017-09-09T04:10:24.590Z,10.33
2017-09-09T04:12:54.542Z,11.27
2017-09-09T04:15:37.387Z,9.70
2017-09-09T04:18:07.046Z,10.70
2017-09-09T04:20:36.474Z,11.67
2017-09-09T04:23:05.918Z,10.37
2017-09-09T04:25:35.340Z,12.47
2017-09-09T04:28:05.048Z,12.77
2017-09-09T04:30:35.189Z,14.37
2017-09-09T04:33:15.482Z,14.53
2017-09-09T04:35:44.945Z,13.20
2017-09-09T04:38:14.428Z,13.30
2017-09-09T04:40:43.875Z,14.40
2017-09-09T04:43:13.331Z,14.97
2017-09-09T04:45:42.727Z,14.80
2017-09-09T04:48:12.197Z,14.10
2017-09-09T04:50:41.621Z,14.77
2017-09-09T04:53:11.088Z,16.90
2017-09-09T04:55:40.543Z,14.13
2017-09-09T04:58:10.088Z,12.90
2017-09-09T05:00:39.526Z,13.70
2017-09-09T05:03:09.012Z,13.50
2017-09-09T05:05:38.439Z,13.37
2017-09-09T05:08:08.505Z,13.93
2017-09-09T05:10:38.315Z,11.63
2017-09-09T05:13:07.803Z,11.60
2017-09-09T05:15:37.248Z,10.70
2017-09-09T05:18:06.723Z,10.03
2017-09-09T05:20:36.209Z,12.20
2017-09-09T05:23:18.538Z,10.43
2017-09-09T05:25:48.197Z,10.93
2017-09-09T05:28:17.779Z,9.73
2017-09-09T05:30:47.266Z,10.47
2017-09-09T05:33:16.752Z,9.63
2017-09-09T05:35:46.244Z,10.40
2017-09-09T05:38:15.748Z,11.17
2017-09-09T05:40:45.237Z,10.60
2017-09-09T05:43:14.691Z,10.67
2017-09-09T05:45:51.170Z,11.53
2017-09-09T05:48:27.969Z,12.00
2017-09-09T05:50:57.393Z,10.70
2017-09-09T05:53:26.897Z,9.80
2017-09-09T05:55:56.347Z,10.27
2017-09-09T05:58:27.140Z,10.37
2017-09-09T06:00:56.580Z,12.57
2017-09-09T06:03:26.069Z,10.00
2017-09-09T06:05:56.001Z,10.80
2017-09-09T06:08:32.284Z,11.10
2017-09-09T06:11:07.954Z,10.03
2017-09-09T06:13:37.429Z,12.03
2017-09-09T06:16:13.346Z,12.10
2017-09-09T06:18:42.805Z,9.83
2017-09-09T06:21:12.769Z,9.80
2017-09-09T06:23:54.351Z,11.10
2017-09-09T06:26:30.159Z,11.43
2017-09-09T06:28:59.580Z,10.90
2017-09-09T06:31:35.209Z,10.97
2017-09-09T06:34:04.672Z,9.60
2017-09-09T06:36:45.074Z,10.57
2017-09-09T06:39:14.513Z,9.53
2017-09-09T06:41:50.050Z,10.87
2017-09-09T06:44:19.491Z,11.00
2017-09-09T06:46:48.989Z,11.13
2017-09-09T06:49:18.455Z,10.40
2017-09-09T06:51:47.900Z,10.33
2017-09-09T06:54:17.438Z,10.07
2017-09-09T06:56:46.924Z,9.93
2017-09-09T06:59:16.334Z,11.50
2017-09-09T07:01:45.759Z,10.10
2017-09-09T07:04:16.290Z,10.80
2017-09-09T07:06:45.745Z,10.10
2017-09-09T07:09:23.089Z,10.53
2017-09-09T07:11:52.556Z,12.00
2017-09-09T07:14:22.013Z,9.97
2017-09-09T07:16:52.476Z,10.50
2017-09-09T07:19:21.940Z,9.60
2017-09-09T07:21:51.394Z,10.50
2017-09-09T07:24:25.425Z,9.93
2017-09-09T07:26:54.871Z,10.10
2017-09-09T07:29:24.295Z,10.00
2017-09-09T07:31:56.568Z,10.30
2017-09-09T07:34:26.010Z,10.33
2017-09-09T07:36:55.457Z,11.67
2017-09-09T07:39:24.905Z,11.40
2017-09-09T07:41:55.554Z,10.50
2017-09-09T07:44:26.582Z,11.63
2017-09-09T07:46:56.954Z,12.10
2017-09-09T07:49:26.469Z,11.80
2017-09-09T07:51:55.896Z,11.47
2017-09-09T07:54:25.396Z,11.30
2017-09-09T07:56:54.837Z,10.50
2017-09-09T07:59:31.371Z,12.70
2017-09-09T08:02:09.172Z,13.50
2017-09-09T08:04:38.614Z,14.53
2017-09-09T08:07:08.068Z,14.90
2017-09-09T08:09:37.545Z,16.60
2017-09-09T08:12:14.546Z,13.80
2017-09-09T08:14:44.015Z,14.97
2017-09-09T08:17:13.497Z,15.70
2017-09-09T08:19:42.950Z,13.33
2017-09-09T08:22:25.821Z,13.30
2017-09-09T08:24:55.259Z,13.57
2017-09-09T08:27:24.750Z,14.70
2017-09-09T08:29:54.210Z,13.70
2017-09-09T08:32:23.661Z,11.93
2017-09-09T08:34:53.122Z,15.03
2017-09-09T08:37:22.537Z,12.07
2017-09-09T08:39:52.012Z,11.30
2017-09-09T08:42:28.995Z,12.13
2017-09-09T08:44:58.493Z,14.20
2017-09-09T08:47:27.956Z,13.27
2017-09-09T08:49:57.378Z,11.63
2017-09-09T08:52:26.799Z,11.20
2017-09-09T08:54:56.275Z,11.80
2017-09-09T08:57:25.674Z,12.90
2017-09-09T08:59:55.064Z,13.73
2017-09-09T09:02:31.601Z,12.07
2017-09-09T09:05:01.112Z,11.10
2017-09-09T09:07:30.652Z,14.63
2017-09-09T09:10:00.114Z,14.27
2017-09-09T09:12:29.563Z,14.10
2017-09-09T09:14:59.075Z,13.60
2017-09-09T09:17:36.359Z,13.77
2017-09-09T09:20:05.821Z,13.40
2017-09-09T09:22:35.336Z,13.03
2017-09-09T09:25:10.823Z,15.13
2017-09-09T09:27:40.261Z,12.90
2017-09-09T09:30:09.794Z,13.23
2017-09-09T09:32:39.242Z,11.83
2017-09-09T09:35:08.689Z,13.60
2017-09-09T09:37:38.973Z,13.60
2017-09-09T09:40:08.381Z,13.43
2017-09-09T09:42:37.857Z,12.57
2017-09-09T09:45:15.028Z,15.27
2017-09-09T09:47:52.264Z,14.63
2017-09-09T09:50:21.796Z,14.43
2017-09-09T09:52:57.499Z,11.73
2017-09-09T09:55:26.965Z,14.70
2017-09-09T09:57:56.416Z,13.13
2017-09-09T10:00:25.902Z,13.77
2017-09-09T10:02:55.395Z,13.30
2017-09-09T10:05:32.514Z,13.43
2017-09-09T10:08:02.045Z,13.57
2017-09-09T10:10:31.503Z,15.17
2017-09-09T10:13:00.914Z,11.50
2017-09-09T10:15:30.383Z,13.57
2017-09-09T10:17:59.827Z,15.90
2017-09-09T10:20:29.322Z,12.93
2017-09-09T10:22:58.850Z,14.20
2017-09-09T10:25:33.924Z,14.97
2017-09-09T10:28:03.457Z,16.13
2017-09-09T10:30:32.947Z,15.63
2017-09-09T10:33:02.496Z,16.30
2017-09-09T10:35:39.314Z,15.53
2017-09-09T10:38:08.715Z,18.40
2017-09-09T10:40:38.164Z,18.40
2017-09-09T10:43:15.382Z,19.57
2017-09-09T10:45:44.827Z,15.17
2017-09-09T10:48:14.290Z,17.67
2017-09-09T10:50:49.870Z,17.00
2017-09-09T10:53:24.107Z,17.30
2017-09-09T10:55:53.545Z,17.90
2017-09-09T10:58:22.999Z,17.77
2017-09-09T11:00:58.745Z,19.27
2017-09-09T11:03:28.240Z,17.30
2017-09-09T11:05:57.661Z,17.13
2017-09-09T11:08:27.064Z,17.23
2017-09-09T11:10:56.526Z,16.70
2017-09-09T11:13:26.515Z,17.27
2017-09-09T11:15:56.010Z,16.83
2017-09-09T11:18:25.461Z,17.50
2017-09-09T11:20:54.921Z,15.37
2017-09-09T11:23:24.342Z,13.60
2017-09-09T11:25:53.962Z,14.80
2017-09-09T11:28:23.417Z,15.00
2017-09-09T11:30:54.103Z,14.30
2017-09-09T11:33:23.586Z,14.47
2017-09-09T11:35:53.034Z,14.43
2017-09-09T11:38:22.433Z,13.87
2017-09-09T11:40:58.605Z,13.07
2017-09-09T11:43:28.037Z,12.87
2017-09-09T11:45:57.488Z,14.13
2017-09-09T11:48:28.425Z,12.47
2017-09-09T11:50:59.693Z,12.80
2017-09-09T11:53:37.055Z,11.40
2017-09-09T11:56:14.190Z,12.03
2017-09-09T11:58:43.619Z,12.77
2017-09-09T12:01:13.173Z,10.70
2017-09-09T12:03:42.587Z,11.43
2017-09-09T12:06:12.064Z,10.17
2017-09-09T12:08:41.533Z,10.07
2017-09-09T12:11:10.946Z,8.53
2017-09-09T12:13:40.461Z,9.80
2017-09-09T12:16:09.908Z,9.00
2017-09-09T12:18:39.858Z,9.43
2017-09-09T12:21:09.262Z,8.80
2017-09-09T12:23:38.716Z,9.00
2017-09-09T12:26:22.461Z,9.87
2017-09-09T12:28:52.066Z,10.40
2017-09-09T12:31:21.608Z,9.83
2017-09-09T12:33:51.145Z,9.50
2017-09-09T12:36:20.797Z,10.67
2017-09-09T12:38:50.247Z,9.27
2017-09-09T12:41:19.834Z,8.97
2017-09-09T12:43:49.292Z,8.50
2017-09-09T12:46:18.725Z,7.40
2017-09-09T12:48:48.127Z,8.80
2017-09-09T12:51:17.546Z,8.80
2017-09-09T12:53:53.327Z,8.97
2017-09-09T12:56:22.767Z,8.13
2017-09-09T12:58:52.203Z,8.10
2017-09-09T13:01:22.625Z,8.60
2017-09-09T13:03:52.334Z,8.27
2017-09-09T13:06:22.317Z,9.37
2017-09-09T13:08:51.797Z,9.77
2017-09-09T13:11:22.417Z,9.97
2017-09-09T13:13:51.869Z,9.80
2017-09-09T13:16:21.413Z,10.07
2017-09-09T13:19:00.860Z,9.83
2017-09-09T13:21:30.421Z,11.70
2017-09-09T13:24:14.013Z,11.13
2017-09-09T13:26:49.657Z,12.37
2017-09-09T13:29:19.090Z,12.30
2017-09-09T13:31:50.136Z,12.70
2017-09-09T13:34:19.717Z,12.50
2017-09-09T13:36:49.099Z,12.47
2017-09-09T13:39:18.645Z,13.63
2017-09-09T13:41:48.202Z,15.07
2017-09-09T13:44:18.398Z,11.83
2017-09-09T13:46:47.933Z,13.03
2017-09-09T13:49:17.878Z,13.40
2017-09-09T13:51:59.811Z,15.53
2017-09-09T13:54:29.290Z,16.17
2017-09-09T13:56:58.724Z,14.87
2017-09-09T13:59:28.200Z,16.10
2017-09-09T14:01:57.653Z,16.20
2017-09-09T14:04:27.089Z,16.47
2017-09-09T14:06:56.484Z,15.73
2017-09-09T14:09:25.923Z,15.20
2017-09-09T14:11:55.408Z,16.50
2017-09-09T14:14:33.630Z,19.00
2017-09-09T14:17:03.830Z,17.63
2017-09-09T14:19:33.257Z,16.60
2017-09-09T14:22:09.149Z,15.40
2017-09-09T14:24:38.655Z,16.70
2017-09-09T14:27:08.223Z,16.30
2017-09-09T14:29:37.681Z,17.03
2017-09-09T14:32:07.822Z,17.30
2017-09-09T14:34:37.588Z,16.20
2017-09-09T14:37:07.093Z,15.27
2017-09-09T14:39:36.549Z,17.17
2017-09-09T14:42:08.594Z,16.90
2017-09-09T14:44:38.051Z,16.93
2017-09-09T14:47:07.591Z,17.57
2017-09-09T14:49:37.051Z,17.60
2017-09-09T14:52:06.574Z,13.67
2017-09-09T14:54:48.509Z,14.40
2017-09-09T14:57:18.159Z,14.17
2017-09-09T14:59:47.603Z,13.40
2017-09-09T15:02:17.045Z,12.73
2017-09-09T15:04:46.623Z,10.57
2017-09-09T15:07:16.076Z,10.00
2017-09-09T15:09:45.716Z,9.67
2017-09-09T15:12:15.198Z,8.87
2017-09-09T15:14:44.599Z,8.57
2017-09-09T15:17:29.084Z,8.97
2017-09-09T15:19:58.602Z,7.30
2017-09-09T15:22:35.826Z,7.33
2017-09-09T15:25:05.326Z,6.03
2017-09-09T15:27:41.566Z,7.50
2017-09-09T15:30:11.013Z,7.27
2017-09-09T15:32:50.861Z,6.40
2017-09-09T15:35:27.557Z,5.63
2017-09-09T15:37:57.109Z,5.63
2017-09-09T15:40:39.645Z,5.47
2017-09-09T15:43:16.877Z,5.07
2017-09-09T15:45:46.335Z,4.77
2017-09-09T15:48:15.913Z,5.00
2017-09-09T15:50:53.230Z,4.87
2017-09-09T15:53:22.716Z,5.90
2017-09-09T15:55:52.249Z,4.20
2017-09-09T15:58:21.689Z,4.60
2017-09-09T16:00:51.142Z,4.80
2017-09-09T16:03:20.604Z,5.17
2017-09-09T16:05:51.414Z,5.20
2017-09-09T16:08:28.460Z,4.37
2017-09-09T16:10:57.992Z,4.93
2017-09-09T16:13:27.607Z,4.63
2017-09-09T16:15:57.287Z,4.20
2017-09-09T16:18:26.745Z,4.27
2017-09-09T16:20:56.310Z,4.97
2017-09-09T16:23:38.093Z,3.80
2017-09-09T16:26:07.571Z,4.23
2017-09-09T16:28:44.767Z,4.33
2017-09-09T16:31:15.187Z,4.23
2017-09-09T16:33:44.620Z,3.20
2017-09-09T16:36:17.381Z,4.17
2017-09-09T16:38:46.804Z,3.67
2017-09-09T16:41:17.249Z,4.43
2017-09-09T16:44:04.124Z,3.23
2017-09-09T16:46:33.525Z,3.50
2017-09-09T16:49:03.030Z,3.70
2017-09-09T16:51:33.074Z,3.70
2017-09-09T16:54:14.686Z,3.53
2017-09-09T16:56:44.250Z,3.73
2017-09-09T16:59:17.278Z,3.40
2017-09-09T17:01:46.798Z,3.77
2017-09-09T17:04:16.363Z,3.57
2017-09-09T17:06:45.818Z,3.70
2017-09-09T17:09:15.237Z,3.70
2017-09-09T17:11:44.704Z,4.40
2017-09-09T17:14:20.285Z,5.07
2017-09-09T17:16:49.712Z,3.93
2017-09-09T17:19:21.719Z,4.07
2017-09-09T17:22:05.114Z,4.50
2017-09-09T17:24:34.536Z,4.30
2017-09-09T17:27:03.997Z,3.63
2017-09-09T17:29:48.005Z,3.60
2017-09-09T17:32:31.632Z,3.67
2017-09-09T17:35:01.620Z,3.80
2017-09-09T17:37:31.032Z,3.87
2017-09-09T17:40:00.692Z,3.83
2017-09-09T17:42:30.603Z,3.60
2017-09-09T17:45:00.063Z,3.40
2017-09-09T17:47:36.051Z,4.33
2017-09-09T17:50:05.572Z,4.00
2017-09-09T17:52:35.056Z,3.50
2017-09-09T17:55:04.574Z,4.00
2017-09-09T17:57:34.375Z,4.30
2017-09-09T18:00:03.875Z,3.83
2017-09-09T18:02:33.597Z,4.20
2017-09-09T18:05:09.167Z,3.60
2017-09-09T18:07:38.722Z,3.87
2017-09-09T18:10:15.214Z,3.87
2017-09-09T18:12:44.806Z,3.67
2017-09-09T18:15:14.349Z,3.77
2017-09-09T18:17:49.927Z,4.07
2017-09-09T18:20:19.485Z,4.20
2017-09-09T18:22:49.058Z,4.13
2017-09-09T18:25:29.294Z,3.83
2017-09-09T18:28:11.985Z,3.70
2017-09-09T18:30:41.437Z,4.20
2017-09-09T18:33:11.073Z,4.10
2017-09-09T18:35:40.552Z,3.90
2017-09-09T18:38:09.991Z,5.13
2017-09-09T18:40:39.430Z,3.97
2017-09-09T18:43:08.941Z,3.63
2017-09-09T18:45:38.513Z,3.90
2017-09-09T18:48:08.222Z,4.40
2017-09-09T18:50:39.031Z,4.30
2017-09-09T18:53:08.727Z,4.33
2017-09-09T18:55:43.296Z,4.13
2017-09-09T18:58:12.894Z,4.00
2017-09-09T19:00:42.443Z,3.70
2017-09-09T19:03:12.140Z,4.17
2017-09-09T19:05:48.736Z,3.87
2017-09-09T19:08:18.530Z,4.77
2017-09-09T19:10:51.406Z,4.10
2017-09-09T19:13:20.901Z,4.57
2017-09-09T19:15:50.395Z,4.73
2017-09-09T19:18:19.992Z,4.67
2017-09-09T19:20:49.414Z,3.70
2017-09-09T19:23:32.571Z,4.00
2017-09-09T19:26:02.020Z,5.07
2017-09-09T19:28:31.432Z,5.00
2017-09-09T19:31:09.869Z,4.40
2017-09-09T19:33:39.693Z,6.37
2017-09-09T19:36:09.492Z,5.80
2017-09-09T19:38:38.927Z,5.80
2017-09-09T19:41:08.793Z,5.93
2017-09-09T19:43:38.469Z,6.17
2017-09-09T19:46:07.988Z,5.87
2017-09-09T19:48:37.417Z,6.07
2017-09-09T19:51:14.166Z,8.43
2017-09-09T19:53:43.867Z,7.83
2017-09-09T19:56:13.361Z,9.03
2017-09-09T19:58:50.432Z,7.80
2017-09-09T20:01:20.064Z,7.63
2017-09-09T20:03:49.457Z,8.77
2017-09-09T20:06:18.863Z,7.67
2017-09-09T20:08:55.401Z,8.60
2017-09-09T20:11:26.197Z,8.60
2017-09-09T20:13:57.509Z,9.20
2017-09-09T20:16:27.018Z,8.37
2017-09-09T20:18:56.439Z,8.30
2017-09-09T20:21:25.837Z,8.20
2017-09-09T20:23:55.329Z,7.07
2017-09-09T20:26:38.158Z,6.60
2017-09-09T20:29:08.629Z,6.23
2017-09-09T20:31:38.059Z,5.93
2017-09-09T20:34:14.053Z,5.93
2017-09-09T20:36:43.561Z,4.57
2017-09-09T20:39:13.007Z,4.87
2017-09-09T20:41:52.440Z,4.87
2017-09-09T20:44:21.891Z,5.20
2017-09-09T20:47:05.852Z,5.43
2017-09-09T20:49:49.157Z,4.37
2017-09-09T20:52:18.700Z,3.80
2017-09-09T20:54:48.170Z,4.10
2017-09-09T20:57:17.680Z,4.27
2017-09-09T20:59:59.407Z,4.20
2017-09-09T21:02:28.925Z,2.90
2017-09-09T21:04:58.402Z,4.10
2017-09-09T21:07:27.881Z,3.90
2017-09-09T21:09:57.306Z,3.60
2017-09-09T21:12:37.527Z,4.07
2017-09-09T21:15:07.178Z,4.20
2017-09-09T21:17:36.641Z,4.60
2017-09-09T21:20:06.115Z,4.90
2017-09-09T21:22:35.558Z,4.27
2017-09-09T21:25:12.306Z,4.10
2017-09-09T21:27:42.736Z,4.57
2017-09-09T21:30:20.100Z,4.97
2017-09-09T21:32:55.822Z,4.30
2017-09-09T21:35:31.287Z,4.10
2017-09-09T21:38:00.786Z,3.87
2017-09-09T21:40:36.474Z,3.70
2017-09-09T21:43:05.896Z,3.40
2017-09-09T21:45:35.377Z,4.47
2017-09-09T21:48:04.847Z,3.50
2017-09-09T21:50:34.362Z,3.60
2017-09-09T21:53:03.912Z,3.57
2017-09-09T21:55:34.073Z,3.97
2017-09-09T21:58:03.534Z,4.33
2017-09-09T22:00:32.963Z,3.90
2017-09-09T22:03:02.385Z,3.40
2017-09-09T22:05:31.986Z,3.67
2017-09-09T22:08:01.404Z,2.83
2017-09-09T22:10:30.909Z,3.00
2017-09-09T22:13:00.308Z,3.03
2017-09-09T22:15:37.744Z,2.77
2017-09-09T22:18:07.207Z,2.53
2017-09-09T22:20:36.758Z,3.30
2017-09-09T22:23:06.329Z,3.00
2017-09-09T22:25:49.241Z,3.77
2017-09-09T22:28:18.764Z,3.27
2017-09-09T22:30:48.184Z,2.83
2017-09-09T22:33:17.678Z,3.20
2017-09-09T22:35:47.158Z,3.03
2017-09-09T22:38:16.605Z,3.10
2017-09-09T22:40:47.430Z,3.30
2017-09-09T22:43:18.880Z,4.10
2017-09-09T22:45:48.383Z,3.00
2017-09-09T22:48:23.973Z,2.80
2017-09-09T22:50:53.493Z,3.67
2017-09-09T22:53:25.983Z,4.20
2017-09-09T22:56:02.708Z,3.00
2017-09-09T22:58:39.250Z,3.10
2017-09-09T23:01:08.773Z,3.07
2017-09-09T23:03:39.366Z,2.93
2017-09-09T23:06:08.811Z,3.30
2017-09-09T23:08:51.105Z,2.93
2017-09-09T23:11:24.452Z,3.53
2017-09-09T23:13:54.049Z,2.83
2017-09-09T23:16:23.548Z,2.67
2017-09-09T23:18:53.053Z,3.03
2017-09-09T23:21:22.513Z,3.13
2017-09-09T23:23:51.946Z,2.90
2017-09-09T23:26:21.390Z,2.87
2017-09-09T23:28:56.021Z,3.03
2017-09-09T23:31:25.448Z,3.33
2017-09-09T23:33:54.954Z,2.53
2017-09-09T23:36:24.450Z,3.30
2017-09-09T23:38:53.945Z,3.40
2017-09-09T23:41:23.418Z,3.30
2017-09-09T23:43:52.978Z,3.00
2017-09-09T23:46:22.427Z,2.87
2017-09-09T23:48:51.830Z,3.43
2017-09-09T23:51:21.329Z,3.20
2017-09-09T23:53:57.183Z,2.80
2017-09-09T23:56:26.663Z,3.60
2017-09-09T23:58:56.090Z,2.83
